createdAt,value
2023-02-19T00:00:34.497Z,1.81
2023-02-19T00:03:22.360Z,1.84
2023-02-19T00:05:54.155Z,1.85
2023-02-19T00:08:23.140Z,1.86
2023-02-19T00:10:53.359Z,1.86
2023-02-19T00:13:21.994Z,1.88
2023-02-19T00:15:50.834Z,1.88
2023-02-19T00:18:20.199Z,1.90
2023-02-19T00:20:49.481Z,1.93
2023-02-19T00:23:20.856Z,1.96
2023-02-19T00:25:51.926Z,2.00
2023-02-19T00:28:24.343Z,2.03
2023-02-19T00:30:53.794Z,2.08
2023-02-19T00:33:22.900Z,2.12
2023-02-19T00:35:55.587Z,2.14
2023-02-19T00:38:25.504Z,2.16
2023-02-19T00:40:55.729Z,2.16
2023-02-19T00:43:25.494Z,2.14
2023-02-19T00:45:55.667Z,2.14
2023-02-19T00:48:25.169Z,2.14
2023-02-19T00:50:56.458Z,2.16
2023-02-19T00:53:25.734Z,2.17
2023-02-19T00:55:55.224Z,2.20
2023-02-19T00:58:25.196Z,2.23
2023-02-19T01:00:55.456Z,2.27
2023-02-19T01:03:24.775Z,2.29
2023-02-19T01:05:56.561Z,2.28
2023-02-19T01:08:25.881Z,2.28
2023-02-19T01:10:54.842Z,2.27
2023-02-19T01:13:24.760Z,2.25
2023-02-19T01:16:02.331Z,2.24
2023-02-19T01:18:32.851Z,2.24
2023-02-19T01:21:07.559Z,2.26
2023-02-19T01:23:38.102Z,2.28
2023-02-19T01:26:11.716Z,2.30
2023-02-19T01:28:40.701Z,2.32
2023-02-19T01:31:13.820Z,2.33
2023-02-19T01:33:46.809Z,2.33
2023-02-19T01:36:16.685Z,2.32
2023-02-19T01:38:46.295Z,2.32
2023-02-19T01:41:17.475Z,2.31
2023-02-19T01:44:02.005Z,2.30
2023-02-19T01:46:33.022Z,2.30
2023-02-19T01:49:07.758Z,2.31
2023-02-19T01:51:39.540Z,2.33
2023-02-19T01:54:12.243Z,2.34
2023-02-19T01:56:43.722Z,2.38
2023-02-19T01:59:16.335Z,2.40
2023-02-19T02:01:45.912Z,2.40
2023-02-19T02:04:17.404Z,2.38
2023-02-19T02:06:53.394Z,2.36
2023-02-19T02:09:44.853Z,2.33
2023-02-19T02:12:13.892Z,2.29
2023-02-19T02:14:45.990Z,2.26
2023-02-19T02:17:25.724Z,2.25
2023-02-19T02:20:11.698Z,2.25
2023-02-19T02:22:47.936Z,2.26
2023-02-19T02:25:47.973Z,2.28
2023-02-19T02:28:28.528Z,2.32
2023-02-19T02:31:02.698Z,2.33
2023-02-19T02:33:37.098Z,2.33
2023-02-19T02:36:10.690Z,2.32
2023-02-19T02:38:42.931Z,2.28
2023-02-19T02:41:14.180Z,2.23
2023-02-19T02:43:43.373Z,2.23
2023-02-19T02:46:14.459Z,2.23
2023-02-19T02:48:53.227Z,2.25
2023-02-19T02:51:28.381Z,2.26
2023-02-19T02:54:25.413Z,2.29
2023-02-19T02:56:58.112Z,2.30
2023-02-19T02:59:32.162Z,2.31
2023-02-19T03:02:13.463Z,2.31
2023-02-19T03:05:09.329Z,2.29
2023-02-19T03:07:46.009Z,2.26
2023-02-19T03:10:20.536Z,2.21
2023-02-19T03:13:12.252Z,2.18
2023-02-19T03:16:06.605Z,2.15
2023-02-19T03:18:57.067Z,2.14
2023-02-19T03:21:28.745Z,2.12
2023-02-19T03:24:16.509Z,2.11
2023-02-19T03:26:53.574Z,2.11
2023-02-19T03:29:26.024Z,2.13
2023-02-19T03:32:04.856Z,2.11
2023-02-19T03:34:41.277Z,2.11
2023-02-19T03:37:16.187Z,2.09
2023-02-19T03:39:45.495Z,2.06
2023-02-19T03:42:26.203Z,2.02
2023-02-19T03:45:08.083Z,1.98
2023-02-19T03:47:49.782Z,1.94
2023-02-19T03:50:22.654Z,1.92
2023-02-19T03:52:58.526Z,1.91
2023-02-19T03:55:35.665Z,1.89
2023-02-19T03:58:09.012Z,1.88
2023-02-19T04:00:44.589Z,1.86
2023-02-19T04:03:20.577Z,1.84
2023-02-19T04:05:53.473Z,1.81
2023-02-19T04:08:24.160Z,1.77
2023-02-19T04:10:59.913Z,1.73
2023-02-19T04:13:32.913Z,1.70
2023-02-19T04:16:07.431Z,1.64
2023-02-19T04:18:40.054Z,1.59
2023-02-19T04:21:11.591Z,1.58
2023-02-19T04:23:44.551Z,1.57
2023-02-19T04:26:17.904Z,1.57
2023-02-19T04:28:47.920Z,1.58
2023-02-19T04:31:16.719Z,1.59
2023-02-19T04:33:45.485Z,1.59
2023-02-19T04:36:14.474Z,1.56
2023-02-19T04:38:43.165Z,1.54
2023-02-19T04:41:12.438Z,1.51
2023-02-19T04:43:41.448Z,1.48
2023-02-19T04:46:26.086Z,1.46
2023-02-19T04:48:58.659Z,1.45
2023-02-19T04:51:27.393Z,1.45
2023-02-19T04:53:56.164Z,1.45
2023-02-19T04:56:24.838Z,1.47
2023-02-19T04:58:54.066Z,1.50
2023-02-19T05:01:24.500Z,1.51
2023-02-19T05:03:55.820Z,1.51
2023-02-19T05:06:24.590Z,1.52
2023-02-19T05:08:56.810Z,1.51
2023-02-19T05:11:25.572Z,1.48
2023-02-19T05:13:59.667Z,1.44
2023-02-19T05:16:29.848Z,1.42
2023-02-19T05:19:00.231Z,1.43
2023-02-19T05:21:28.940Z,1.43
2023-02-19T05:23:59.151Z,1.44
2023-02-19T05:26:31.796Z,1.44
2023-02-19T05:29:01.247Z,1.47
2023-02-19T05:31:30.380Z,1.50
2023-02-19T05:33:59.903Z,1.54
2023-02-19T05:36:31.215Z,1.56
2023-02-19T05:39:00.221Z,1.59
2023-02-19T05:41:30.616Z,1.58
2023-02-19T05:43:59.528Z,1.58
2023-02-19T05:46:30.199Z,1.57
2023-02-19T05:49:00.041Z,1.58
2023-02-19T05:51:32.948Z,1.58
2023-02-19T05:54:02.065Z,1.61
2023-02-19T05:56:36.493Z,1.64
2023-02-19T05:59:14.118Z,1.65
2023-02-19T06:01:43.543Z,1.67
2023-02-19T06:04:13.452Z,1.66
2023-02-19T06:06:42.987Z,1.68
2023-02-19T06:09:14.512Z,1.69
2023-02-19T06:11:43.664Z,1.68
2023-02-19T06:14:14.258Z,1.66
2023-02-19T06:16:43.725Z,1.65
2023-02-19T06:19:16.115Z,1.65
2023-02-19T06:21:44.692Z,1.66
2023-02-19T06:24:13.612Z,1.67
2023-02-19T06:26:42.288Z,1.72
2023-02-19T06:29:13.454Z,1.74
2023-02-19T06:31:44.280Z,1.74
2023-02-19T06:34:13.495Z,1.75
2023-02-19T06:36:42.408Z,1.76
2023-02-19T06:39:11.246Z,1.79
2023-02-19T06:41:40.270Z,1.81
2023-02-19T06:44:09.829Z,1.83
2023-02-19T06:46:43.977Z,1.86
2023-02-19T06:49:12.751Z,1.89
2023-02-19T06:51:42.025Z,1.96
2023-02-19T06:54:10.863Z,2.01
2023-02-19T06:56:41.291Z,2.05
2023-02-19T06:59:12.662Z,2.13
2023-02-19T07:01:42.428Z,2.16
2023-02-19T07:04:11.897Z,2.19
2023-02-19T07:06:42.071Z,2.21
2023-02-19T07:09:11.340Z,2.19
2023-02-19T07:11:41.096Z,2.18
2023-02-19T07:14:15.294Z,2.17
2023-02-19T07:16:44.201Z,2.17
2023-02-19T07:19:14.434Z,2.18
2023-02-19T07:21:46.222Z,2.20
2023-02-19T07:24:15.351Z,2.23
2023-02-19T07:26:45.323Z,2.27
2023-02-19T07:29:14.296Z,2.30
2023-02-19T07:31:43.844Z,2.31
2023-02-19T07:34:14.119Z,2.33
2023-02-19T07:36:43.111Z,2.35
2023-02-19T07:39:13.981Z,2.34
2023-02-19T07:41:42.811Z,2.33
2023-02-19T07:44:16.454Z,2.34
2023-02-19T07:46:48.186Z,2.37
2023-02-19T07:49:20.874Z,2.40
2023-02-19T07:51:55.523Z,2.45
2023-02-19T07:54:24.737Z,2.51
2023-02-19T07:56:54.480Z,2.56
2023-02-19T07:59:23.644Z,2.59
2023-02-19T08:02:11.028Z,2.59
2023-02-19T08:04:40.336Z,2.60
2023-02-19T08:07:09.311Z,2.63
2023-02-19T08:09:38.172Z,2.63
2023-02-19T08:12:28.815Z,2.65
2023-02-19T08:14:58.453Z,2.64
2023-02-19T08:17:29.767Z,2.67
2023-02-19T08:19:59.184Z,2.71
2023-02-19T08:22:29.387Z,2.73
2023-02-19T08:24:58.427Z,2.76
2023-02-19T08:27:27.468Z,2.78
2023-02-19T08:29:57.606Z,2.80
2023-02-19T08:32:26.485Z,2.84
2023-02-19T08:34:56.967Z,2.89
2023-02-19T08:37:26.163Z,2.91
2023-02-19T08:39:57.014Z,2.93
2023-02-19T08:42:25.951Z,3.00
2023-02-19T08:44:56.473Z,3.13
2023-02-19T08:47:25.512Z,3.27
2023-02-19T08:50:02.156Z,3.39
2023-02-19T08:52:30.852Z,3.48
2023-02-19T08:55:00.270Z,3.52
2023-02-19T08:57:29.844Z,3.51
2023-02-19T08:59:58.794Z,3.53
2023-02-19T09:02:27.580Z,3.59
2023-02-19T09:04:58.412Z,3.65
2023-02-19T09:07:27.335Z,3.69
2023-02-19T09:09:57.976Z,3.70
2023-02-19T09:12:26.819Z,3.68
2023-02-19T09:14:56.358Z,3.69
2023-02-19T09:17:25.114Z,3.68
2023-02-19T09:19:54.759Z,3.70
2023-02-19T09:22:23.364Z,3.69
2023-02-19T09:24:51.962Z,3.65
2023-02-19T09:27:22.775Z,3.66
2023-02-19T09:29:51.383Z,3.72
2023-02-19T09:32:20.042Z,3.79
2023-02-19T09:34:49.341Z,3.81
2023-02-19T09:37:17.905Z,3.81
2023-02-19T09:39:46.711Z,3.80
2023-02-19T09:42:19.170Z,3.81
2023-02-19T09:44:50.436Z,3.77
2023-02-19T09:47:21.457Z,3.76
2023-02-19T09:49:54.815Z,3.73
2023-02-19T09:52:32.581Z,3.69
2023-02-19T09:55:04.735Z,3.65
2023-02-19T09:57:36.192Z,3.62
2023-02-19T10:00:14.446Z,3.66
2023-02-19T10:02:43.400Z,3.70
2023-02-19T10:05:14.415Z,3.78
2023-02-19T10:07:45.780Z,3.88
2023-02-19T10:10:25.235Z,3.98
2023-02-19T10:12:59.108Z,4.04
2023-02-19T10:15:33.428Z,4.07
2023-02-19T10:18:04.801Z,4.12
2023-02-19T10:20:33.838Z,4.18
2023-02-19T10:23:05.497Z,4.23
2023-02-19T10:25:35.261Z,4.24
2023-02-19T10:28:04.745Z,4.23
2023-02-19T10:30:35.579Z,4.29
2023-02-19T10:33:09.811Z,4.50
2023-02-19T10:35:51.684Z,4.90
2023-02-19T10:38:23.108Z,5.33
2023-02-19T10:40:57.911Z,5.54
2023-02-19T10:43:32.707Z,5.43
2023-02-19T10:46:06.338Z,5.27
2023-02-19T10:48:46.739Z,5.15
2023-02-19T10:51:21.311Z,5.11
2023-02-19T10:53:51.996Z,5.20
2023-02-19T10:56:26.693Z,5.28
2023-02-19T10:59:13.593Z,5.32
2023-02-19T11:01:55.327Z,5.37
2023-02-19T11:04:25.779Z,5.43
2023-02-19T11:06:58.138Z,5.45
2023-02-19T11:09:33.338Z,5.41
2023-02-19T11:12:04.518Z,5.37
2023-02-19T11:14:34.789Z,5.28
2023-02-19T11:17:05.087Z,5.29
2023-02-19T11:19:38.772Z,5.37
2023-02-19T11:22:28.856Z,5.42
2023-02-19T11:25:03.626Z,5.26
2023-02-19T11:27:33.309Z,5.13
2023-02-19T11:30:36.667Z,5.04
2023-02-19T11:33:28.775Z,5.02
2023-02-19T11:36:30.411Z,5.06
2023-02-19T11:39:07.629Z,5.10
2023-02-19T11:41:57.070Z,5.08
2023-02-19T11:44:35.056Z,4.90
2023-02-19T11:47:27.536Z,4.74
2023-02-19T11:50:05.107Z,4.67
2023-02-19T11:52:39.877Z,4.67
2023-02-19T11:55:18.694Z,4.71
2023-02-19T11:57:55.982Z,4.75
2023-02-19T12:00:29.279Z,4.67
2023-02-19T12:03:32.575Z,4.57
2023-02-19T12:06:15.060Z,4.56
2023-02-19T12:09:07.015Z,4.67
2023-02-19T12:12:10.109Z,4.82
2023-02-19T12:15:02.130Z,4.76
2023-02-19T12:17:55.820Z,4.72
2023-02-19T12:20:32.328Z,4.75
2023-02-19T12:23:20.243Z,4.84
2023-02-19T12:25:57.445Z,4.94
2023-02-19T12:28:59.800Z,5.00
2023-02-19T12:32:18.226Z,5.03
2023-02-19T12:35:04.926Z,4.99
2023-02-19T12:37:47.763Z,4.99
2023-02-19T12:40:34.568Z,5.08
2023-02-19T12:43:15.783Z,5.22
2023-02-19T12:45:51.740Z,5.32
2023-02-19T12:48:29.428Z,5.29
2023-02-19T12:51:02.600Z,5.32
2023-02-19T12:53:39.084Z,5.46
2023-02-19T12:56:13.945Z,5.53
2023-02-19T12:58:46.382Z,5.55
2023-02-19T13:01:20.693Z,5.52
2023-02-19T13:03:57.377Z,5.41
2023-02-19T13:06:36.401Z,5.24
2023-02-19T13:09:11.834Z,5.04
2023-02-19T13:11:48.779Z,4.85
2023-02-19T13:14:24.360Z,4.73
2023-02-19T13:17:00.055Z,4.64
2023-02-19T13:19:30.517Z,4.56
2023-02-19T13:22:29.196Z,4.47
2023-02-19T13:24:58.776Z,4.43
2023-02-19T13:27:41.880Z,4.42
2023-02-19T13:30:27.985Z,4.40
2023-02-19T13:33:07.165Z,4.34
2023-02-19T13:36:05.355Z,4.31
2023-02-19T13:38:37.654Z,4.29
2023-02-19T13:41:16.917Z,4.26
2023-02-19T13:43:46.743Z,4.21
2023-02-19T13:46:17.508Z,4.17
2023-02-19T13:48:46.228Z,4.14
2023-02-19T13:51:50.623Z,4.07
2023-02-19T13:54:26.038Z,4.00
2023-02-19T13:57:28.883Z,3.93
2023-02-19T13:59:59.460Z,3.89
2023-02-19T14:02:32.921Z,3.87
2023-02-19T14:05:04.512Z,3.86
2023-02-19T14:07:47.860Z,3.82
2023-02-19T14:11:02.645Z,3.79
2023-02-19T14:13:59.824Z,3.77
2023-02-19T14:16:52.714Z,3.79
2023-02-19T14:19:47.054Z,3.78
2023-02-19T14:22:52.023Z,3.76
2023-02-19T14:25:39.329Z,3.75
2023-02-19T14:28:24.243Z,3.76
2023-02-19T14:30:57.585Z,3.78
2023-02-19T14:33:29.111Z,3.80
2023-02-19T14:36:05.082Z,3.83
2023-02-19T14:38:39.258Z,3.88
2023-02-19T14:41:12.436Z,3.92
2023-02-19T14:43:43.530Z,3.96
2023-02-19T14:46:22.233Z,3.99
2023-02-19T14:48:52.021Z,3.98
2023-02-19T14:51:30.488Z,3.96
2023-02-19T14:54:01.831Z,3.95
2023-02-19T14:56:34.241Z,3.94
2023-02-19T14:59:22.698Z,3.90
2023-02-19T15:02:00.153Z,3.87
2023-02-19T15:04:31.159Z,3.83
2023-02-19T15:07:06.073Z,3.77
2023-02-19T15:09:39.527Z,3.74
2023-02-19T15:12:13.906Z,3.71
2023-02-19T15:14:42.954Z,3.66
2023-02-19T15:17:16.691Z,3.60
2023-02-19T15:19:45.564Z,3.52
2023-02-19T15:22:19.589Z,3.46
2023-02-19T15:24:48.867Z,3.42
2023-02-19T15:27:20.604Z,3.39
2023-02-19T15:29:53.303Z,3.36
2023-02-19T15:32:25.753Z,3.34
2023-02-19T15:34:56.787Z,3.35
2023-02-19T15:37:28.277Z,3.35
2023-02-19T15:40:00.166Z,3.35
2023-02-19T15:42:31.735Z,3.32
2023-02-19T15:45:06.509Z,3.29
2023-02-19T15:47:41.590Z,3.25
2023-02-19T15:50:14.902Z,3.21
2023-02-19T15:52:48.861Z,3.18
2023-02-19T15:55:35.483Z,3.14
2023-02-19T15:58:13.466Z,3.10
2023-02-19T16:00:47.295Z,3.05
2023-02-19T16:03:19.866Z,3.00
2023-02-19T16:05:59.325Z,2.94
2023-02-19T16:08:31.548Z,2.89
2023-02-19T16:11:02.389Z,2.85
2023-02-19T16:13:32.882Z,2.83
2023-02-19T16:16:15.345Z,2.83
2023-02-19T16:18:47.521Z,2.85
2023-02-19T16:21:20.193Z,2.86
2023-02-19T16:23:54.946Z,2.86
2023-02-19T16:26:23.573Z,2.83
2023-02-19T16:28:54.074Z,2.76
2023-02-19T16:31:24.071Z,2.70
2023-02-19T16:33:56.591Z,2.63
2023-02-19T16:36:35.768Z,2.56
2023-02-19T16:39:22.392Z,2.50
2023-02-19T16:42:14.245Z,2.44
2023-02-19T16:44:44.698Z,2.39
2023-02-19T16:47:31.997Z,2.34
2023-02-19T16:50:03.789Z,2.31
2023-02-19T16:52:32.396Z,2.30
2023-02-19T16:55:01.251Z,2.26
2023-02-19T16:57:29.858Z,2.24
2023-02-19T16:59:58.402Z,2.23
2023-02-19T17:02:27.884Z,2.20
2023-02-19T17:04:56.715Z,2.19
2023-02-19T17:07:26.913Z,2.20
2023-02-19T17:09:55.962Z,2.22
2023-02-19T17:12:24.517Z,2.24
2023-02-19T17:14:55.961Z,2.26
2023-02-19T17:17:24.998Z,2.27
2023-02-19T17:19:54.734Z,2.28
2023-02-19T17:22:23.278Z,2.27
2023-02-19T17:24:51.864Z,2.25
2023-02-19T17:27:20.510Z,2.23
2023-02-19T17:29:49.166Z,2.21
2023-02-19T17:32:18.058Z,2.17
2023-02-19T17:34:49.072Z,2.13
2023-02-19T17:37:17.941Z,2.07
2023-02-19T17:39:46.619Z,1.99
2023-02-19T17:42:15.215Z,1.90
2023-02-19T17:44:45.423Z,1.83
2023-02-19T17:47:14.054Z,1.77
2023-02-19T17:49:43.816Z,1.72
2023-02-19T17:52:16.467Z,1.68
2023-02-19T17:54:45.068Z,1.67
2023-02-19T17:57:13.777Z,1.67
2023-02-19T17:59:42.295Z,1.68
2023-02-19T18:02:10.878Z,1.65
2023-02-19T18:04:41.180Z,1.62
2023-02-19T18:07:09.984Z,1.60
2023-02-19T18:09:40.472Z,1.56
2023-02-19T18:12:10.095Z,1.51
2023-02-19T18:14:38.699Z,1.47
2023-02-19T18:17:07.377Z,1.41
2023-02-19T18:19:36.098Z,1.35
2023-02-19T18:22:06.573Z,1.31
2023-02-19T18:24:35.470Z,1.26
2023-02-19T18:27:04.249Z,1.21
2023-02-19T18:29:34.936Z,1.17
2023-02-19T18:32:03.919Z,1.14
2023-02-19T18:34:32.980Z,1.13
2023-02-19T18:37:01.962Z,1.12
2023-02-19T18:39:30.541Z,1.10
2023-02-19T18:42:00.131Z,1.08
2023-02-19T18:44:28.732Z,1.05
2023-02-19T18:46:57.328Z,1.01
2023-02-19T18:49:26.048Z,0.97
2023-02-19T18:51:55.324Z,0.91
2023-02-19T18:54:24.060Z,0.87
2023-02-19T18:56:52.848Z,0.82
2023-02-19T18:59:24.159Z,0.76
2023-02-19T19:01:53.004Z,0.70
2023-02-19T19:04:22.593Z,0.65
2023-02-19T19:06:51.219Z,0.62
2023-02-19T19:09:19.846Z,0.60
2023-02-19T19:11:51.687Z,0.59
2023-02-19T19:14:20.772Z,0.59
2023-02-19T19:16:49.369Z,0.59
2023-02-19T19:19:19.143Z,0.58
2023-02-19T19:21:53.473Z,0.55
2023-02-19T19:24:24.184Z,0.55
2023-02-19T19:26:54.635Z,0.52
2023-02-19T19:29:23.642Z,0.51
2023-02-19T19:31:52.376Z,0.48
2023-02-19T19:34:23.512Z,0.44
2023-02-19T19:36:52.190Z,0.41
2023-02-19T19:39:20.834Z,0.36
2023-02-19T19:41:55.639Z,0.33
2023-02-19T19:44:24.420Z,0.30
2023-02-19T19:46:54.780Z,0.30
2023-02-19T19:49:23.828Z,0.30
2023-02-19T19:51:52.567Z,0.30
2023-02-19T19:54:22.170Z,0.30
2023-02-19T19:56:51.057Z,0.29
2023-02-19T19:59:19.888Z,0.27
2023-02-19T20:01:50.341Z,0.25
2023-02-19T20:04:19.638Z,0.20
2023-02-19T20:06:48.472Z,0.17
2023-02-19T20:09:17.796Z,0.14
2023-02-19T20:11:48.298Z,0.11
2023-02-19T20:14:18.734Z,0.10
2023-02-19T20:16:47.405Z,0.11
2023-02-19T20:19:17.268Z,0.12
2023-02-19T20:21:46.214Z,0.11
2023-02-19T20:24:15.993Z,0.10
2023-02-19T20:26:45.046Z,0.06
2023-02-19T20:29:13.612Z,0.03
2023-02-19T20:31:49.396Z,-0.01
2023-02-19T20:34:18.974Z,-0.05
2023-02-19T20:36:48.775Z,-0.09
2023-02-19T20:39:19.111Z,-0.13
2023-02-19T20:41:49.557Z,-0.15
2023-02-19T20:44:19.102Z,-0.17
2023-02-19T20:46:50.804Z,-0.18
2023-02-19T20:49:21.831Z,-0.18
2023-02-19T20:51:52.975Z,-0.19
2023-02-19T20:54:27.166Z,-0.21
2023-02-19T20:56:59.162Z,-0.23
2023-02-19T20:59:30.413Z,-0.26
2023-02-19T21:01:59.507Z,-0.30
2023-02-19T21:04:28.290Z,-0.34
2023-02-19T21:06:57.184Z,-0.37
2023-02-19T21:09:25.883Z,-0.40
2023-02-19T21:11:57.868Z,-0.43
2023-02-19T21:14:26.460Z,-0.43
2023-02-19T21:16:56.013Z,-0.43
2023-02-19T21:19:24.743Z,-0.41
2023-02-19T21:21:53.703Z,-0.39
2023-02-19T21:24:23.099Z,-0.40
2023-02-19T21:26:51.616Z,-0.40
2023-02-19T21:29:22.284Z,-0.41
2023-02-19T21:31:54.653Z,-0.41
2023-02-19T21:34:25.661Z,-0.42
2023-02-19T21:36:55.384Z,-0.45
2023-02-19T21:39:26.743Z,-0.48
2023-02-19T21:41:58.084Z,-0.49
2023-02-19T21:44:26.677Z,-0.52
2023-02-19T21:46:57.784Z,-0.53
2023-02-19T21:49:26.918Z,-0.55
2023-02-19T23:16:15.875Z,-0.35
2023-02-19T23:18:44.545Z,-0.30
2023-02-19T23:21:13.685Z,-0.25
2023-02-19T23:23:42.421Z,-0.18
2023-02-19T23:26:12.399Z,-0.12
2023-02-19T23:28:42.383Z,-0.06
2023-02-19T23:31:12.059Z,0.01
2023-02-19T23:33:40.859Z,0.08
2023-02-19T23:36:11.173Z,0.13
2023-02-19T23:38:43.172Z,0.18
2023-02-19T23:41:13.502Z,0.20
2023-02-19T23:43:42.296Z,0.23
2023-02-19T23:46:16.917Z,0.23
2023-02-19T23:48:46.194Z,0.22
2023-02-19T23:51:14.852Z,0.21
2023-02-19T23:53:43.393Z,0.19
2023-02-19T23:56:12.522Z,0.18
2023-02-19T23:58:41.231Z,0.16
